Time;durP1;ratioP1;P1;durP2;ratioP2;P2;SDS_P1;SDS_P2;PMS_P1;PMS_P2;Temp;Humidity;BMP_temperature;BMP_pressure;BME280_temperature;BME280_humidity;BME280_pressure;Samples;Min_cycle;Max_cycle;Signal;HPM_P1;HPM_P2
2021/12/15 07:59:17;;;;;;;62.08;34.45;;;;;;;8.58;100.00;102922.19;5286383;28;20401;-68
2021/12/15 08:01:48;;;;;;;58.90;34.28;;;;;;;8.62;100.00;102931.75;5278445;28;20044;-67
2021/12/15 08:04:20;;;;;;;56.13;34.88;;;;;;;8.62;100.00;102925.38;5260870;28;20040;-69
2021/12/15 08:06:51;;;;;;;55.08;33.75;;;;;;;8.77;100.00;102930.53;5272326;28;20021;-70
2021/12/15 08:09:23;;;;;;;54.40;32.47;;;;;;;8.75;100.00;102927.16;5258766;28;20036;-70
2021/12/15 08:11:54;;;;;;;52.70;33.13;;;;;;;8.81;100.00;102923.47;5258800;28;20021;-69
2021/12/15 08:14:25;;;;;;;57.50;34.47;;;;;;;8.81;100.00;102934.56;5271963;28;20036;-70
2021/12/15 08:16:57;;;;;;;54.17;32.50;;;;;;;8.88;100.00;102941.72;5259495;28;20032;-68
2021/12/15 08:19:28;;;;;;;54.92;35.03;;;;;;;8.88;100.00;102936.19;5260771;28;20044;-68
2021/12/15 08:22:02;;;;;;;48.60;32.53;;;;;;;8.94;100.00;102939.94;5258332;28;20495;-68
2021/12/15 08:24:34;;;;;;;51.53;31.52;;;;;;;8.93;100.00;102932.72;5262204;28;20123;-68
2021/12/15 08:27:05;;;;;;;50.53;31.58;;;;;;;8.96;100.00;102936.97;5273725;28;20037;-67
2021/12/15 08:29:37;;;;;;;49.53;31.05;;;;;;;9.01;100.00;102942.66;5260068;28;20036;-69
2021/12/15 08:32:08;;;;;;;50.17;32.22;;;;;;;8.95;100.00;102938.91;5278426;28;20035;-70
2021/12/15 08:34:40;;;;;;;51.53;32.55;;;;;;;8.98;100.00;102941.19;5278087;28;20037;-71
2021/12/15 08:37:13;;;;;;;52.85;33.70;;;;;;;9.02;100.00;102945.19;5279418;28;20056;-67
2021/12/15 08:39:48;;;;;;;52.70;32.25;;;;;;;9.02;100.00;102945.19;5259207;28;20033;-68
2021/12/15 08:42:19;;;;;;;51.80;32.40;;;;;;;9.03;100.00;102944.13;5258452;28;20021;-68
2021/12/15 08:44:51;;;;;;;55.03;34.58;;;;;;;8.98;100.00;102941.19;5258370;28;20465;-70
2021/12/15 08:47:23;;;;;;;50.67;31.95;;;;;;;9.05;100.00;102942.00;5264875;28;20037;-67
2021/12/15 08:49:57;;;;;;;51.25;32.35;;;;;;;9.10;100.00;102941.28;5260744;28;20420;-68
2021/12/15 08:52:28;;;;;;;47.33;31.45;;;;;;;9.11;100.00;102941.06;5261298;28;20021;-68
2021/12/15 08:55:00;;;;;;;53.35;33.50;;;;;;;9.05;100.00;102953.06;5273238;28;20354;-66
2021/12/15 08:57:32;;;;;;;48.75;30.65;;;;;;;9.15;100.00;102941.44;5276475;28;20174;-66
2021/12/15 09:00:07;;;;;;;46.58;31.48;;;;;;;9.13;100.00;102941.69;5270715;28;20037;-68
2021/12/15 09:02:38;;;;;;;44.90;31.20;;;;;;;9.07;100.00;102947.28;5277721;28;20017;-67
2021/12/15 09:05:10;;;;;;;50.53;33.22;;;;;;;9.08;100.00;102957.28;5266732;28;20029;-68
2021/12/15 09:07:44;;;;;;;49.33;32.85;;;;;;;9.11;100.00;102952.13;5261342;28;20067;-67
2021/12/15 09:10:15;;;;;;;50.97;34.13;;;;;;;9.13;100.00;102955.53;5255665;28;20025;-66
2021/12/15 09:12:47;;;;;;;43.80;30.33;;;;;;;9.13;100.00;102950.00;5253872;28;20020;-67
2021/12/15 09:15:18;;;;;;;48.60;30.80;;;;;;;9.13;100.00;102954.69;5254481;28;20033;-67
2021/12/15 09:17:50;;;;;;;47.15;32.50;;;;;;;9.18;100.00;102962.28;5243868;28;20473;-67
2021/12/15 09:20:24;;;;;;;47.20;31.98;;;;;;;9.22;100.00;102966.28;5257954;28;20029;-67
2021/12/15 09:22:57;;;;;;;46.95;32.45;;;;;;;9.21;100.00;102962.69;5245693;28;20037;-67
2021/12/15 09:25:28;;;;;;;44.35;28.85;;;;;;;9.24;100.00;102961.38;5244435;28;20033;-67
2021/12/15 09:27:59;;;;;;;44.30;31.75;;;;;;;9.23;100.00;102968.84;5259004;28;20025;-68
2021/12/15 09:30:32;;;;;;;48.15;32.22;;;;;;;9.30;100.00;102974.28;5259280;28;20108;-67
2021/12/15 09:33:04;;;;;;;50.35;32.70;;;;;;;9.26;100.00;102985.00;5264138;28;20031;-67
2021/12/15 09:35:35;;;;;;;44.63;29.13;;;;;;;9.32;100.00;102980.47;5263574;28;20468;-67
2021/12/15 09:38:07;;;;;;;44.42;29.95;;;;;;;9.37;100.00;102983.38;5259521;28;20072;-67
2021/12/15 09:40:40;;;;;;;42.78;29.67;;;;;;;9.39;100.00;102989.53;5244220;28;20041;-68
2021/12/15 09:43:12;;;;;;;40.85;29.95;;;;;;;9.41;100.00;102981.88;5243097;28;20017;-67
2021/12/15 09:45:54;;;;;;;46.15;30.70;;;;;;;9.34;100.00;102983.84;5251481;28;20025;-68
2021/12/15 09:57:22;;;;;;;45.75;32.50;;;;;;;9.47;100.00;102988.41;5245086;28;20045;-68
2021/12/15 10:03:00;;;;;;;48.38;32.85;;;;;;;9.48;100.00;102984.53;5259438;28;20037;-69
2021/12/15 10:11:30;;;;;;;44.85;30.80;;;;;;;9.56;100.00;103001.72;5242018;28;20069;-68
2021/12/15 10:20:00;;;;;;;45.85;31.02;;;;;;;9.58;100.00;102985.69;5258053;28;20299;-67
2021/12/15 10:22:42;;;;;;;45.90;33.50;;;;;;;9.59;100.00;102992.09;5262718;28;20397;-68
2021/12/15 10:25:26;;;;;;;43.05;30.92;;;;;;;9.63;100.00;102986.94;5263355;28;20037;-67
2021/12/15 10:28:04;;;;;;;47.42;31.98;;;;;;;9.64;100.00;102988.59;5263567;28;20025;-68
2021/12/15 10:30:43;;;;;;;44.28;30.25;;;;;;;9.66;100.00;102986.47;5250304;28;20023;-67
2021/12/15 10:33:22;;;;;;;47.05;32.80;;;;;;;9.68;99.88;102990.69;5243695;28;20030;-68
2021/12/15 10:35:59;;;;;;;51.88;33.53;;;;;;;9.66;99.89;102981.75;5249290;28;20029;-67
2021/12/15 10:38:38;;;;;;;46.33;32.97;;;;;;;9.65;100.00;102980.09;5263213;28;20174;-67
2021/12/15 10:41:23;;;;;;;45.50;31.90;;;;;;;9.69;99.92;102980.44;5259324;28;20081;-68
2021/12/15 10:44:06;;;;;;;46.20;32.25;;;;;;;9.71;99.79;102983.84;5263119;28;20381;-68
2021/12/15 10:47:04;;;;;;;44.63;32.83;;;;;;;9.66;100.00;102981.75;5254632;28;20481;-68
2021/12/15 10:49:42;;;;;;;48.08;33.97;;;;;;;9.72;100.00;102986.41;5256996;28;20052;-68
2021/12/15 10:52:13;;;;;;;47.35;34.95;;;;;;;9.73;100.00;102987.22;5250365;28;20366;-68
2021/12/15 10:54:49;;;;;;;44.65;31.95;;;;;;;9.75;100.00;102994.25;5257364;28;20033;-68
2021/12/15 10:57:31;;;;;;;51.30;38.88;;;;;;;9.77;100.00;102999.56;5258992;28;20182;-68
2021/12/15 11:00:08;;;;;;;44.35;33.25;;;;;;;9.78;99.63;102996.53;5268526;28;20037;-69
2021/12/15 11:02:40;;;;;;;45.88;32.03;;;;;;;9.77;99.64;102994.84;5247131;28;20112;-68
2021/12/15 11:05:15;;;;;;;44.25;32.90;;;;;;;9.81;100.00;102995.22;5257462;28;20571;-67
2021/12/15 11:07:52;;;;;;;46.72;32.22;;;;;;;9.81;100.00;102992.47;5256642;28;20033;-67
2021/12/15 11:10:38;;;;;;;48.47;33.90;;;;;;;9.85;99.47;102987.31;5248497;28;20540;-66
2021/12/15 11:13:14;;;;;;;45.65;35.53;;;;;;;9.86;98.95;102992.59;5241539;28;20057;-65
2021/12/15 11:15:51;;;;;;;42.92;34.20;;;;;;;9.85;99.54;102985.38;5241016;28;20074;-66
2021/12/15 11:18:26;;;;;;;53.72;38.03;;;;;;;9.87;99.19;102983.22;5241595;28;20029;-65
2021/12/15 11:21:01;;;;;;;44.40;33.25;;;;;;;9.87;99.56;102982.34;5242803;28;20063;-69
2021/12/15 11:23:32;;;;;;;43.83;32.97;;;;;;;9.89;99.64;102981.03;5240919;28;20017;-67
2021/12/15 11:26:11;;;;;;;44.10;33.42;;;;;;;9.83;99.28;102981.16;5241904;28;20385;-68
2021/12/15 11:28:45;;;;;;;45.20;31.90;;;;;;;9.82;99.61;102980.31;5240683;28;20108;-67
2021/12/15 11:31:25;;;;;;;42.55;31.25;;;;;;;9.80;99.59;102982.47;5241016;28;20473;-67
2021/12/15 11:34:05;;;;;;;39.88;31.95;;;;;;;9.82;99.43;102974.78;5241548;28;20440;-69
2021/12/15 11:36:44;;;;;;;42.45;31.08;;;;;;;9.90;99.59;102980.00;5240503;28;20021;-68
2021/12/15 11:39:20;;;;;;;41.30;32.28;;;;;;;9.86;98.88;102975.13;5243435;28;20041;-68
2021/12/15 11:41:54;;;;;;;41.90;32.97;;;;;;;9.90;98.61;102982.75;5262012;28;20032;-67
2021/12/15 11:44:28;;;;;;;40.03;31.63;;;;;;;9.92;98.62;102975.06;5260702;28;20116;-67
2021/12/15 11:47:03;;;;;;;42.58;30.95;;;;;;;9.93;98.92;102982.28;5262078;28;20385;-66
2021/12/15 11:49:36;;;;;;;;;;;;;;;10.06;98.24;102974.88;5262485;28;20533;-67
2021/12/15 11:52:14;;;;;;;40.22;30.60;;;;;;;10.01;97.75;102972.81;5248016;28;19948;-67
2021/12/15 11:54:49;;;;;;;37.40;30.60;;;;;;;10.07;98.16;102971.00;5241470;28;20168;-67
2021/12/15 11:57:24;;;;;;;39.63;30.85;;;;;;;10.04;97.72;102971.47;5245616;28;20045;-67
2021/12/15 11:59:59;;;;;;;40.58;29.38;;;;;;;9.98;97.38;102974.13;5248271;28;20378;-68
2021/12/15 12:02:32;;;;;;;38.00;29.88;;;;;;;10.04;97.28;102968.72;5241163;28;20021;-68
2021/12/15 12:05:34;;;;;;;37.20;29.25;;;;;;;10.06;97.05;102970.16;5239968;28;20033;-67
2021/12/15 12:08:11;;;;;;;35.60;29.23;;;;;;;10.07;96.98;102968.25;5240922;28;20101;-69
2021/12/15 12:10:47;;;;;;;36.75;28.58;;;;;;;10.09;96.66;102971.63;5241200;28;20451;-68
2021/12/15 12:13:26;;;;;;;39.10;28.58;;;;;;;10.10;96.97;102970.53;5249248;28;20043;-66
2021/12/15 12:16:01;;;;;;;37.70;29.77;;;;;;;10.08;96.74;102967.19;5247923;28;20025;-67
2021/12/15 12:18:32;;;;;;;36.75;28.95;;;;;;;10.03;96.54;102959.56;5243752;28;20485;-67
2021/12/15 12:21:08;;;;;;;36.42;29.80;;;;;;;10.05;97.01;102962.06;5251270;28;20029;-67
2021/12/15 12:23:44;;;;;;;36.85;28.33;;;;;;;10.05;97.10;102956.53;5243356;28;20485;-68
2021/12/15 12:26:19;;;;;;;38.20;30.20;;;;;;;10.06;97.05;102964.63;5242946;28;20041;-68
2021/12/15 12:28:50;;;;;;;37.28;28.92;;;;;;;10.08;96.48;102962.47;5247151;28;20388;-68
2021/12/15 12:31:23;;;;;;;34.90;28.67;;;;;;;10.09;96.64;102963.31;5259492;28;20100;-68
2021/12/15 12:33:55;;;;;;;34.92;28.40;;;;;;;10.15;96.29;102956.81;5251140;28;20030;-68
2021/12/15 12:36:33;;;;;;;32.08;27.17;;;;;;;10.11;96.52;102958.38;5245512;28;20392;-68
2021/12/15 12:39:08;;;;;;;35.30;28.83;;;;;;;10.12;96.16;102948.97;5260025;28;20028;-68
2021/12/15 12:41:46;;;;;;;33.90;28.63;;;;;;;10.16;96.31;102950.19;5254006;28;20017;-68
2021/12/15 12:44:22;;;;;;;33.00;26.35;;;;;;;10.15;95.91;102951.25;5262658;28;20030;-69
2021/12/15 12:47:03;;;;;;;32.85;26.40;;;;;;;10.16;95.56;102948.28;5246324;28;20057;-69
2021/12/15 13:01:16;;;;;;;30.63;26.02;;;;;;;10.18;95.12;102935.03;5251692;28;20037;-68
2021/12/15 13:03:54;;;;;;;29.13;24.75;;;;;;;10.28;95.47;102931.72;5247569;28;20033;-67
2021/12/15 13:06:28;;;;;;;28.33;24.83;;;;;;;10.26;94.25;102933.84;5244464;28;20025;-69
2021/12/15 13:09:02;;;;;;;30.00;24.55;;;;;;;10.26;95.20;102930.22;5242892;28;20029;-69
2021/12/15 13:11:36;;;;;;;29.20;23.70;;;;;;;10.29;94.23;102927.84;5252361;28;20025;-68
2021/12/15 13:14:33;;;;;;;29.63;24.08;;;;;;;10.28;94.52;102934.50;5263512;28;20053;-66
2021/12/15 13:17:18;;;;;;;30.73;23.60;;;;;;;10.36;94.22;102928.59;5260980;28;20036;-67
2021/12/15 13:19:51;;;;;;;26.67;23.73;;;;;;;10.36;94.09;102924.97;5255102;28;20022;-67
2021/12/15 13:30:59;;;;;;;25.95;21.98;;;;;;;10.49;92.84;102940.56;5259209;28;20476;-68
2021/12/15 13:33:30;;;;;;;25.38;22.50;;;;;;;10.54;92.80;102932.38;5264425;28;20017;-68
2021/12/15 13:36:25;;;;;;;26.98;21.88;;;;;;;10.58;92.51;102944.66;5259972;28;20037;-67
2021/12/15 13:39:06;;;;;;;25.70;21.70;;;;;;;10.57;92.05;102943.81;5249896;28;20032;-68
2021/12/15 13:41:59;;;;;;;28.42;20.88;;;;;;;10.59;92.70;102944.44;5243383;28;20384;-68
2021/12/15 13:44:37;;;;;;;28.05;22.25;;;;;;;10.52;92.28;102940.09;5242730;28;20029;-68
2021/12/15 13:47:09;;;;;;;28.13;22.00;;;;;;;10.49;92.72;102946.94;5253168;28;20117;-67
2021/12/15 13:49:45;;;;;;;25.30;22.15;;;;;;;10.52;92.14;102951.19;5263305;28;20440;-67
2021/12/15 13:52:43;;;;;;;24.98;22.17;;;;;;;10.52;92.37;102946.47;5244896;28;20049;-67
2021/12/15 13:55:31;;;;;;;24.23;20.33;;;;;;;10.51;93.00;102943.94;5243749;28;20064;-67
2021/12/15 13:58:13;;;;;;;29.60;25.65;;;;;;;10.52;91.88;102949.25;5242492;28;20050;-68
2021/12/15 14:01:02;;;;;;;26.48;21.70;;;;;;;10.55;92.37;102945.16;5242971;28;20029;-68
2021/12/15 14:03:46;;;;;;;24.67;20.60;;;;;;;10.59;92.84;102946.38;5242518;28;20029;-67
2021/12/15 14:06:23;;;;;;;27.35;22.35;;;;;;;10.56;92.86;102952.41;5243438;28;20072;-66
2021/12/15 14:08:56;;;;;;;30.08;23.50;;;;;;;10.56;92.57;102949.63;5242724;28;20377;-67
2021/12/15 14:11:33;;;;;;;28.13;23.15;;;;;;;10.57;92.92;102948.53;5243589;28;20060;-66
2021/12/15 14:14:19;;;;;;;31.13;23.60;;;;;;;10.51;92.89;102950.34;5249107;28;20487;-66
2021/12/15 14:16:56;;;;;;;31.50;24.80;;;;;;;10.53;92.88;102955.63;5252408;28;20428;-64
2021/12/15 14:19:36;;;;;;;25.25;22.50;;;;;;;10.48;92.70;102953.59;5262526;28;20029;-67
2021/12/15 14:22:09;;;;;;;29.88;23.50;;;;;;;10.48;92.89;102950.81;5243527;28;20036;-66
2021/12/15 14:24:40;;;;;;;27.70;24.70;;;;;;;10.51;93.30;102955.06;5241513;28;20030;-66
2021/12/15 14:27:12;;;;;;;29.17;26.08;;;;;;;10.47;92.55;102962.97;5243215;28;20080;-67
2021/12/15 14:29:43;;;;;;;30.50;25.92;;;;;;;10.50;92.78;102964.44;5249638;28;20055;-67
2021/12/15 14:32:17;;;;;;;27.58;24.27;;;;;;;10.47;92.66;102962.16;5262573;28;20123;-66
2021/12/15 14:34:49;;;;;;;29.45;24.73;;;;;;;10.49;92.12;102954.44;5244920;28;20022;-66
2021/12/15 14:37:21;;;;;;;32.78;26.83;;;;;;;10.44;92.62;102950.44;5255378;28;20106;-66
2021/12/15 14:39:56;;;;;;;28.52;25.52;;;;;;;10.38;92.69;102962.50;5257710;28;20039;-67
2021/12/15 14:42:28;;;;;;;29.17;26.07;;;;;;;10.37;93.28;102966.31;5263084;28;20021;-67
2021/12/15 14:45:05;;;;;;;31.15;26.23;;;;;;;10.37;93.29;102971.88;5259623;28;20291;-66
2021/12/15 14:47:39;;;;;;;30.42;25.13;;;;;;;10.32;93.69;102980.06;5261414;28;20020;-65
2021/12/15 14:50:17;;;;;;;31.48;26.70;;;;;;;10.40;93.08;102970.56;5262530;28;20025;-65
2021/12/15 14:52:52;;;;;;;30.35;26.17;;;;;;;10.40;93.07;102979.72;5249336;28;20108;-66
2021/12/15 14:55:29;;;;;;;30.75;26.80;;;;;;;10.34;93.34;102974.28;5242011;28;20064;-66
2021/12/15 14:58:00;;;;;;;33.40;26.15;;;;;;;10.37;92.96;102971.88;5242680;28;20049;-69
2021/12/15 15:00:38;;;;;;;28.83;24.75;;;;;;;10.40;93.88;102979.72;5244523;28;20023;-66
2021/12/15 15:03:09;;;;;;;28.83;25.77;;;;;;;10.38;92.32;102984.69;5260261;28;20083;-67
2021/12/15 15:05:45;;;;;;;31.27;26.30;;;;;;;10.36;92.92;102994.31;5262403;28;20028;-67
2021/12/15 15:08:31;;;;;;;29.25;26.15;;;;;;;10.28;92.79;102995.50;5255619;28;20029;-68
2021/12/15 15:11:03;;;;;;;;;;;;;;;10.42;92.58;102996.97;5242088;28;20552;-69
2021/12/15 15:13:34;;;;;;;28.42;25.35;;;;;;;10.35;93.29;103004.53;5252228;28;20018;-68
2021/12/15 15:16:07;;;;;;;30.15;26.40;;;;;;;10.37;92.72;103012.63;5261019;28;20035;-68
2021/12/15 15:18:43;;;;;;;34.92;31.15;;;;;;;10.36;93.33;103003.47;5254339;28;20037;-69
2021/12/15 15:21:14;;;;;;;41.75;36.78;;;;;;;10.36;93.14;103013.75;5253877;28;20373;-67
2021/12/15 15:23:48;;;;;;;29.52;25.88;;;;;;;10.29;93.13;103012.97;5241769;28;20041;-68
2021/12/15 15:26:19;;;;;;;30.17;27.08;;;;;;;10.35;93.29;103018.41;5254809;28;20087;-68
2021/12/15 15:28:54;;;;;;;30.13;25.92;;;;;;;10.35;93.16;103021.19;5259613;28;20060;-65
2021/12/15 15:31:31;;;;;;;30.75;26.52;;;;;;;10.32;93.05;103029.16;5257401;28;20025;-67
2021/12/15 15:34:02;;;;;;;30.50;27.27;;;;;;;10.25;93.62;103018.09;5241684;28;20033;-68
2021/12/15 15:36:35;;;;;;;30.33;25.73;;;;;;;10.29;92.67;103022.13;5254343;28;20035;-68
2021/12/15 15:39:08;;;;;;;31.92;25.88;;;;;;;10.30;92.82;103020.22;5261876;28;20036;-67
2021/12/15 15:41:40;;;;;;;28.52;24.02;;;;;;;10.27;92.89;103026.19;5262069;28;20103;-67
2021/12/15 15:44:11;;;;;;;30.70;26.63;;;;;;;10.26;93.22;103022.59;5261238;28;20113;-68
2021/12/15 15:46:45;;;;;;;28.42;25.13;;;;;;;10.29;93.25;103024.91;5244086;28;20037;-67
2021/12/15 15:49:19;;;;;;;30.58;26.98;;;;;;;10.28;93.13;103020.47;5239948;28;20033;-67
2021/12/15 15:51:51;;;;;;;28.30;25.23;;;;;;;10.29;93.04;103024.06;5241538;28;20033;-67
2021/12/15 15:54:29;;;;;;;31.20;26.08;;;;;;;10.30;93.13;103032.13;5241464;28;20025;-67
2021/12/15 15:57:01;;;;;;;31.70;27.35;;;;;;;10.29;93.13;103033.22;5239880;28;20033;-67
2021/12/15 15:59:36;;;;;;;30.20;27.00;;;;;;;10.19;93.11;103030.16;5240783;28;20041;-67
2021/12/15 16:02:08;;;;;;;34.20;27.95;;;;;;;10.27;93.50;103032.59;5240494;28;20021;-65
2021/12/15 16:04:39;;;;;;;31.20;26.33;;;;;;;10.23;93.64;103026.66;5240193;28;20101;-68
2021/12/15 16:07:15;;;;;;;32.67;26.55;;;;;;;10.21;93.54;103039.09;5240961;28;20141;-67
2021/12/15 16:09:49;;;;;;;;;;;;;;;10.28;93.67;103045.41;5250620;28;20033;-67
2021/12/15 16:12:22;;;;;;;33.00;26.15;;;;;;;10.22;93.81;103046.31;5255511;28;19917;-67
2021/12/15 16:14:54;;;;;;;26.38;20.73;;;;;;;10.44;94.36;103061.41;5261635;28;20025;-66
2021/12/15 16:17:26;;;;;;;36.08;29.30;;;;;;;10.30;93.36;103059.88;5260073;28;20087;-69
2021/12/15 16:20:15;;;;;;;32.83;27.35;;;;;;;10.45;94.25;103065.84;5263722;28;20049;-70
2021/12/15 16:22:50;;;;;;;38.03;33.92;;;;;;;10.29;93.60;103066.50;5246877;28;20385;-68
2021/12/15 16:25:26;;;;;;;37.38;33.28;;;;;;;10.28;93.73;103066.75;5244449;28;20026;-68
2021/12/15 16:28:19;;;;;;;;;;;;;;;10.41;93.26;103072.97;5261676;28;20025;-68
2021/12/15 16:30:56;;;;;;;34.30;28.23;;;;;;;10.29;92.98;103069.28;5259363;28;19920;-68
2021/12/15 16:33:36;;;;;;;32.00;28.70;;;;;;;10.26;93.10;103074.44;5260599;28;20029;-69
2021/12/15 16:36:08;;;;;;;39.25;34.13;;;;;;;10.20;93.38;103073.41;5264223;28;20094;-69
2021/12/15 16:38:46;;;;;;;34.28;30.33;;;;;;;10.21;93.82;103078.75;5263779;28;20025;-67
2021/12/15 16:41:34;;;;;;;39.80;34.35;;;;;;;10.20;92.96;103070.66;5259069;28;20480;-66
2021/12/15 16:44:08;;;;;;;37.40;29.45;;;;;;;10.13;93.63;103081.00;5246513;28;20056;-68
2021/12/15 16:47:01;;;;;;;35.00;29.92;;;;;;;10.11;93.94;103077.59;5244008;28;20031;-67
2021/12/15 16:49:41;;;;;;;34.45;30.63;;;;;;;10.16;93.55;103083.31;5244814;28;20052;-67
2021/12/15 16:52:20;;;;;;;38.92;32.63;;;;;;;10.17;94.03;103085.81;5243748;28;20029;-67
2021/12/15 16:55:04;;;;;;;33.42;27.65;;;;;;;10.17;94.15;103079.44;5258444;28;20061;-67
2021/12/15 16:57:41;;;;;;;33.70;28.17;;;;;;;10.19;94.15;103096.69;5264902;28;20071;-69
2021/12/15 17:00:26;;;;;;;32.80;28.98;;;;;;;10.15;93.82;103082.47;5244443;28;20049;-69
2021/12/15 17:03:03;;;;;;;33.58;29.98;;;;;;;10.11;93.94;103091.47;5244680;28;20020;-70
2021/12/15 17:05:43;;;;;;;34.55;28.33;;;;;;;10.14;94.00;103100.16;5262066;28;20029;-70
2021/12/15 17:08:24;;;;;;;34.25;28.70;;;;;;;10.15;94.17;103078.81;5264675;28;20032;-70
2021/12/15 17:11:08;;;;;;;34.00;29.15;;;;;;;10.12;93.94;103090.38;5264310;28;20525;-70
2021/12/15 17:13:42;;;;;;;35.83;30.50;;;;;;;10.14;94.04;103105.69;5260077;28;20110;-70
2021/12/15 17:16:22;;;;;;;33.42;29.17;;;;;;;10.11;94.41;103102.56;5244223;28;20088;-69
2021/12/15 17:18:54;;;;;;;37.40;31.50;;;;;;;10.13;94.12;103097.63;5259807;28;20115;-68
2021/12/15 17:21:30;;;;;;;35.92;31.08;;;;;;;10.12;94.49;103107.00;5256484;28;20029;-69
2021/12/15 17:24:05;;;;;;;33.50;30.10;;;;;;;10.13;94.52;103095.69;5259507;28;20032;-67
2021/12/15 17:26:43;;;;;;;37.27;31.27;;;;;;;10.08;94.34;103103.03;5244296;28;20026;-67
2021/12/15 17:29:25;;;;;;;36.15;30.27;;;;;;;10.07;94.69;103099.38;5243533;28;20644;-66
